Etusivu
METAR-TAF:

METAR-TAF

Lentoasemat :

Halmstad, Ruotsi

Leveyspiiri: 56-41N, Pituuspiiri: 012-50E, korkeus merenpinnasta: 30 m

Tämänhetkinen sää

Tämä raportti tehtiin 15 minuuttia sitten, kello 01.20 UTC
Tuuli 7 kn idästä
Lämpötila 8°C
Kosteus 81%
Ilmanpaine 989 hPa
Näkyvyys 10 km tai enemmän

METAR: ESMT 060120Z AUTO 08007KT 9999 NCD 08/05 Q0989

Aika: 03:35 (01:35 UTC)

Sääennuste

Tämä raportti tehtiin 14 tuntia ja 24 minuuttia sitten, kello 11.11 UTC
Ennuste voimassa 05. päivästä klo 12 UTC - 05. päivään klo 15 UTC
Tuuli 8 kn lounaasta
Näkyvyys 10 km tai enemmän
Hajanaisia pilviä 1200 ft:n korkeudessa
Hajonneita pilviä 2500 ft:n korkeudessa
Ajoittain
05. päivästä klo 12 UTC - 05. päivään klo 15 UTC
Hajanaisia pilviä 2000 ft:n korkeudessa, Cumulonimbus.
vesikuuroja

TAF: ESMT 051111Z 0512/0515 23008KT 9999 SCT012 BKN025 TEMPO 0512/0515 SHRA SCT020CB

Säähavainnot ja -ennusteet yli 4000 lentoasemalta (METAR- ja TAF-raportit).

Käytössä olevat sääasemat on merkitty karttaan keltaisilla ja punaisilla pisteillä.

Aseta hiiri pisteen päälle nähdäksesi sääaseman nimen.

Klikkaa sitten nähdäksesi säähavainnot ja -ennusteet.

Kartan vaihtaminen: klikkaa mustalla rastilla varustettuja vihreitä pisteitä, niin voit zoomata sisään; viivalla varustettua vihreää pistettä, niin voit zoomata ulos tai vihreitä nuolia, niin pääset viereisille kartoille.


METAR-TAF: